EHBK/MST METAR and TAF weather

Enter ICAO airport designator
Station Type Date Time Source
EHBK METAR 2018/04/21 20:55 UTC NOAA

EHBK 212055Z AUTO 05006KT 9999 NSC 17/10 Q1018


Station Type Date Time Source
EHBK Decoded METAR 2018/04/21 20:55 UTC NOAA

Maastricht Airport Zuid Limburg, Netherlands (EHBK) 50-55N 005-47E 116M
Apr 21, 2018 - 04:55 PM EDT / 2018.04.21 2055 UTC
Wind: from the NE (050 degrees) at 7 MPH (6 KT):0
Visibility: greater than 7 mile(s):0
Temperature: 62 F (17 C)
Dew Point: 50 F (10 C)
Relative Humidity: 63%
Pressure (altimeter): 30.06 in. Hg (1018 hPa)
ob: EHBK 212055Z AUTO 05006KT 9999 NSC 17/10 Q1018
cycle: 21

Station Type Date Time Source
EHBK TAF 2018/04/21 18:31 UTC NOAA

TAF COR EHBK 211727Z 2118/2224 05006KT CAVOK PROB30 2200/2206 4000 HZ BR
BECMG 2206/2209 23010KT PROB30
TEMPO 2208/2210 20010G22KT 7000 -SHRA FEW060CB PROB40
TEMPO 2214/2217 24012G25KT 7000 SHRA SCT050CB PROB30
TEMPO 2214/2217 24015G35KT 3000 TSRA TSRAGR SCT040CB


Example: see airport list